Time;durP1;ratioP1;P1;durP2;ratioP2;P2;SDS_P1;SDS_P2;PMS_P1;PMS_P2;Temp;Humidity;BMP_temperature;BMP_pressure;BME280_temperature;BME280_humidity;BME280_pressure;Samples;Min_cycle;Max_cycle;Signal;HPM_P1;HPM_P2
2023/01/16 00:00:19;;;;;;;5.27;1.40;;;;;;;4.53;100.00;99009.81;696690;28;4714;-69
2023/01/16 00:00:39;;;;;;;3.90;1.30;;;;;;;4.48;100.00;99003.78;697176;28;1364;-68
2023/01/16 00:01:01;;;;;;;5.13;1.47;;;;;;;4.46;100.00;98996.03;697534;28;1400;-68
2023/01/16 00:01:23;;;;;;;4.20;1.30;;;;;;;4.45;100.00;99002.09;697939;28;1182;-69
2023/01/16 00:01:43;;;;;;;4.57;1.30;;;;;;;4.49;100.00;99005.53;700565;28;1452;-68
2023/01/16 00:02:04;;;;;;;5.10;1.40;;;;;;;4.55;100.00;99003.72;699859;28;1094;-69
2023/01/16 00:02:24;;;;;;;4.93;1.30;;;;;;;4.52;100.00;99005.50;699697;28;1131;-69
2023/01/16 00:02:45;;;;;;;5.50;1.37;;;;;;;4.48;100.00;99008.97;696500;28;1454;-69
2023/01/16 00:03:05;;;;;;;5.03;1.50;;;;;;;4.46;100.00;99002.94;697440;28;1059;-69
2023/01/16 00:03:26;;;;;;;5.30;1.45;;;;;;;4.46;100.00;99005.50;696031;28;4292;-69
2023/01/16 00:03:46;;;;;;;4.17;1.20;;;;;;;4.45;100.00;99006.41;696793;28;1261;-69
2023/01/16 00:04:09;;;;;;;4.88;1.40;;;;;;;4.43;100.00;99003.81;695974;28;1132;-69
2023/01/16 00:04:29;;;;;;;4.28;1.38;;;;;;;4.41;100.00;99011.56;695847;28;2120;-69
2023/01/16 00:04:49;;;;;;;6.07;1.50;;;;;;;4.38;100.00;99006.44;698338;28;2173;-69
2023/01/16 00:05:10;;;;;;;5.30;1.43;;;;;;;4.40;100.00;99011.59;699512;28;1607;-69
2023/01/16 00:05:30;;;;;;;5.20;1.50;;;;;;;4.39;100.00;99002.97;699461;28;1202;-69
2023/01/16 00:05:51;;;;;;;5.53;1.40;;;;;;;4.37;100.00;99003.84;699481;28;1418;-69
2023/01/16 00:06:11;;;;;;;4.55;1.30;;;;;;;4.35;100.00;98996.09;699448;28;4771;-70
2023/01/16 00:06:32;;;;;;;5.43;1.60;;;;;;;4.32;100.00;98996.13;699371;28;1364;-69
2023/01/16 00:06:52;;;;;;;4.32;1.45;;;;;;;4.29;100.00;98997.88;697472;28;1546;-69
2023/01/16 00:07:13;;;;;;;4.00;1.35;;;;;;;4.26;100.00;98998.75;697494;28;1146;-69
2023/01/16 00:07:33;;;;;;;4.17;1.30;;;;;;;4.23;100.00;99002.19;694355;28;1215;-69
2023/01/16 00:07:53;;;;;;;4.13;1.37;;;;;;;4.24;100.00;99003.09;694883;28;1487;-69
2023/01/16 00:08:14;;;;;;;4.40;1.20;;;;;;;4.24;100.00;98997.91;693308;28;1154;-69
2023/01/16 00:08:34;;;;;;;4.57;1.23;;;;;;;4.24;100.00;98998.75;694414;28;1333;-70
2023/01/16 00:08:55;;;;;;;4.95;1.33;;;;;;;4.24;100.00;98996.16;696734;28;1582;-70
2023/01/16 00:09:15;;;;;;;4.87;1.40;;;;;;;4.27;100.00;98995.28;696709;28;4310;-70
2023/01/16 00:09:35;;;;;;;4.80;1.23;;;;;;;4.29;100.00;99000.47;697939;28;1242;-69
2023/01/16 00:09:56;;;;;;;5.33;1.37;;;;;;;4.28;100.00;99002.19;698114;28;1402;-70
2023/01/16 00:10:16;;;;;;;5.00;1.40;;;;;;;4.28;100.00;98991.84;695033;28;1554;-70
2023/01/16 00:10:37;;;;;;;4.20;1.30;;;;;;;4.28;100.00;98998.72;695355;28;1290;-70
2023/01/16 00:10:57;;;;;;;4.82;1.30;;;;;;;4.30;100.00;98991.84;694429;28;1409;-70
2023/01/16 00:11:18;;;;;;;4.27;1.20;;;;;;;4.28;100.00;98999.59;695536;28;1404;-69
2023/01/16 00:11:38;;;;;;;4.80;1.23;;;;;;;4.34;100.00;98994.38;697297;28;1527;-70
2023/01/16 00:11:58;;;;;;;4.07;1.20;;;;;;;4.34;100.00;98993.53;697572;28;1260;-70
2023/01/16 00:12:19;;;;;;;3.08;1.10;;;;;;;4.34;100.00;98996.13;700361;28;4292;-72
2023/01/16 00:12:39;;;;;;;3.93;1.13;;;;;;;4.34;100.00;98984.03;700552;28;1256;-68
2023/01/16 00:12:59;;;;;;;4.30;1.10;;;;;;;4.35;100.00;98980.59;700041;28;1226;-69
2023/01/16 00:13:20;;;;;;;5.63;1.30;;;;;;;4.35;100.00;98979.75;700815;28;1182;-69
2023/01/16 00:13:41;;;;;;;4.88;1.20;;;;;;;4.46;100.00;98987.41;700589;28;1967;-69
2023/01/16 00:14:01;;;;;;;3.77;1.10;;;;;;;4.46;100.00;98992.56;700221;28;1245;-69
2023/01/16 00:14:21;;;;;;;4.63;1.15;;;;;;;4.49;100.00;98984.81;700600;28;1433;-69
2023/01/16 00:14:42;;;;;;;4.07;1.23;;;;;;;4.46;100.00;98979.63;700890;28;1790;-69
2023/01/16 00:15:02;;;;;;;3.67;1.13;;;;;;;4.43;100.00;98983.09;698595;28;1115;-69
2023/01/16 00:15:23;;;;;;;3.67;1.43;;;;;;;4.37;100.00;98978.84;699697;28;4443;-70
2023/01/16 00:15:49;;;;;;;3.13;1.33;;;;;;;4.33;100.00;98976.28;697971;28;1309;-69
2023/01/16 00:16:09;;;;;;;4.47;1.15;;;;;;;4.48;100.00;98977.91;697462;28;1329;-69
2023/01/16 00:16:29;;;;;;;3.87;1.10;;;;;;;4.46;100.00;98971.88;697571;28;1281;-70
2023/01/16 00:16:50;;;;;;;3.67;1.10;;;;;;;4.43;100.00;98977.94;692385;28;1249;-71
2023/01/16 00:17:10;;;;;;;4.57;1.20;;;;;;;4.42;100.00;98976.22;690928;28;1100;-69
2023/01/16 00:17:30;;;;;;;4.77;1.20;;;;;;;4.42;100.00;98979.66;693005;28;1330;-70
2023/01/16 00:17:51;;;;;;;5.32;1.30;;;;;;;4.45;100.00;98975.34;692296;28;1232;-69
2023/01/16 00:18:11;;;;;;;4.93;1.30;;;;;;;4.42;100.00;98982.25;691619;28;4317;-70
2023/01/16 00:18:31;;;;;;;3.83;1.43;;;;;;;4.33;100.00;98977.13;692666;28;1270;-71
2023/01/16 00:18:52;;;;;;;4.67;1.40;;;;;;;4.23;100.00;98981.50;696471;28;1480;-70
2023/01/16 00:19:12;;;;;;;4.53;1.40;;;;;;;4.20;100.00;98983.28;696148;28;1229;-70
2023/01/16 00:19:33;;;;;;;5.17;1.40;;;;;;;4.21;100.00;98977.22;696633;28;1281;-69
2023/01/16 00:19:53;;;;;;;5.13;1.60;;;;;;;4.37;100.00;98972.81;700635;28;1225;-68
2023/01/16 00:20:14;;;;;;;4.97;1.47;;;;;;;4.40;100.00;98973.66;697640;28;1546;-69
2023/01/16 00:20:34;;;;;;;4.43;1.20;;;;;;;4.38;100.00;98969.34;695410;28;1151;-69
2023/01/16 00:20:55;;;;;;;4.50;1.17;;;;;;;4.41;100.00;98967.59;692210;28;1331;-68
2023/01/16 00:21:15;;;;;;;5.93;1.48;;;;;;;4.38;100.00;98961.59;691752;28;4324;-70
2023/01/16 00:21:35;;;;;;;5.23;1.27;;;;;;;4.35;100.00;98964.22;692642;28;1472;-69
2023/01/16 00:21:56;;;;;;;5.30;1.30;;;;;;;4.35;100.00;98966.81;692667;28;1242;-70
2023/01/16 00:22:16;;;;;;;3.90;1.20;;;;;;;4.32;100.00;98964.22;694505;28;906;-70
2023/01/16 00:22:37;;;;;;;4.40;1.38;;;;;;;4.31;100.00;98962.50;696943;28;1210;-70
2023/01/16 00:22:57;;;;;;;4.27;1.37;;;;;;;4.30;100.00;98964.22;695108;28;1472;-70
2023/01/16 00:23:17;;;;;;;4.47;1.30;;;;;;;4.28;100.00;98958.22;693702;28;1416;-70
2023/01/16 00:23:38;;;;;;;3.63;1.20;;;;;;;4.25;100.00;98965.97;693801;28;1345;-70
2023/01/16 00:23:58;;;;;;;3.53;1.30;;;;;;;4.23;100.00;98970.31;692283;28;1432;-70
2023/01/16 00:24:19;;;;;;;3.55;1.40;;;;;;;4.24;100.00;98966.88;691991;28;4449;-69
2023/01/16 00:24:39;;;;;;;3.65;1.40;;;;;;;4.23;100.00;98971.16;692205;28;1339;-69
2023/01/16 00:24:59;;;;;;;3.80;1.10;;;;;;;4.24;100.00;98977.22;691560;28;1448;-69
2023/01/16 00:25:20;;;;;;;4.37;1.20;;;;;;;4.23;100.00;98980.66;691976;28;1262;-70
2023/01/16 00:25:42;;;;;;;4.13;1.13;;;;;;;4.24;100.00;98977.22;691182;28;1336;-70
2023/01/16 00:26:09;;;;;;;3.10;1.20;;;;;;;4.33;100.00;98969.38;691216;28;1431;-70
2023/01/16 00:26:29;;;;;;;4.15;1.20;;;;;;;4.32;100.00;98980.63;692320;28;1511;-70
2023/01/16 00:26:51;;;;;;;3.78;1.30;;;;;;;4.33;100.00;98973.69;696091;28;1261;-70
2023/01/16 00:27:11;;;;;;;4.57;1.00;;;;;;;4.31;100.00;98978.88;695793;28;4512;-71
2023/01/16 00:27:31;;;;;;;4.07;0.97;;;;;;;4.23;100.00;98975.47;695691;28;1215;-70
2023/01/16 00:27:52;;;;;;;3.63;1.30;;;;;;;4.21;100.00;98972.91;692885;28;1274;-70
2023/01/16 00:28:13;;;;;;;3.50;1.20;;;;;;;4.19;100.00;98969.47;692111;28;1116;-70
2023/01/16 00:28:36;;;;;;;4.47;1.30;;;;;;;4.13;100.00;98968.66;692396;28;1389;-70
2023/01/16 00:28:57;;;;;;;6.38;1.63;;;;;;;4.15;100.00;98966.91;692140;28;1235;-70
2023/01/16 00:29:17;;;;;;;5.00;1.47;;;;;;;4.17;100.00;98966.03;693228;28;1441;-70
2023/01/16 00:29:38;;;;;;;5.32;1.60;;;;;;;4.19;100.00;98976.38;694467;28;1421;-71
2023/01/16 00:29:58;;;;;;;4.50;1.43;;;;;;;4.17;100.00;98973.81;697431;28;1428;-70
2023/01/16 00:30:19;;;;;;;5.35;1.50;;;;;;;4.16;100.00;98969.47;700306;28;4471;-69
2023/01/16 00:30:40;;;;;;;4.85;1.60;;;;;;;4.24;100.00;98969.44;700607;28;1399;-69
2023/01/16 00:31:00;;;;;;;5.03;1.70;;;;;;;4.35;100.00;98959.88;696463;28;1306;-68
2023/01/16 00:31:27;;;;;;;4.00;1.27;;;;;;;4.52;100.00;98956.31;697855;28;1305;-68
2023/01/16 00:31:48;;;;;;;3.75;1.10;;;;;;;4.54;100.00;98962.31;694733;28;1293;-69
2023/01/16 00:32:10;;;;;;;2.83;1.00;;;;;;;4.47;100.00;98955.50;694908;28;1060;-69
2023/01/16 00:32:30;;;;;;;4.97;1.33;;;;;;;4.44;100.00;98953.78;695526;28;1309;-69
2023/01/16 00:32:50;;;;;;;5.17;1.20;;;;;;;4.40;100.00;98959.84;693639;28;1190;-68
2023/01/16 00:33:11;;;;;;;4.97;1.20;;;;;;;4.32;100.00;98954.75;694079;28;4635;-70
2023/01/16 00:33:33;;;;;;;3.38;1.00;;;;;;;4.30;100.00;98956.47;695224;28;1404;-69
2023/01/16 00:33:53;;;;;;;2.70;1.15;;;;;;;4.28;100.00;98958.22;697141;28;1952;-69
2023/01/16 00:34:14;;;;;;;2.87;1.13;;;;;;;4.30;100.00;98953.88;695081;28;1183;-69
2023/01/16 00:34:34;;;;;;;3.67;1.10;;;;;;;4.27;100.00;98956.50;694235;28;1318;-69
2023/01/16 00:34:55;;;;;;;3.67;1.13;;;;;;;4.30;100.00;98951.28;698275;28;1500;-69
2023/01/16 00:35:15;;;;;;;4.67;1.30;;;;;;;4.35;100.00;98954.72;698181;28;1079;-68
2023/01/16 00:35:35;;;;;;;3.83;1.30;;;;;;;4.38;100.00;98949.50;695310;28;1428;-69
2023/01/16 00:35:56;;;;;;;3.83;1.03;;;;;;;4.41;100.00;98952.06;695159;28;1405;-71
2023/01/16 00:36:16;;;;;;;3.75;1.13;;;;;;;4.42;100.00;98950.34;694249;28;4409;-69
2023/01/16 00:36:38;;;;;;;4.03;1.23;;;;;;;4.33;100.00;98946.09;695473;28;1534;-69
2023/01/16 00:36:59;;;;;;;3.60;1.20;;;;;;;4.30;100.00;98946.13;694591;28;1578;-68
2023/01/16 00:37:19;;;;;;;4.75;1.30;;;;;;;4.28;100.00;98947.88;695435;28;1131;-69
2023/01/16 00:37:39;;;;;;;3.50;1.07;;;;;;;4.25;100.00;98947.88;697428;28;1254;-69
2023/01/16 00:38:00;;;;;;;2.22;0.90;;;;;;;4.23;100.00;98940.13;696484;28;1260;-68
2023/01/16 00:38:20;;;;;;;3.13;1.07;;;;;;;4.23;100.00;98945.28;698241;28;1241;-69
2023/01/16 00:38:41;;;;;;;4.40;1.13;;;;;;;4.22;100.00;98947.91;696861;28;1300;-69
2023/01/16 00:39:01;;;;;;;3.23;1.10;;;;;;;4.21;100.00;98944.47;694290;28;1142;-70
2023/01/16 00:39:21;;;;;;;3.45;1.23;;;;;;;4.16;100.00;98946.22;693472;28;4368;-69
2023/01/16 00:39:42;;;;;;;3.23;1.20;;;;;;;4.14;100.00;98944.50;694278;28;1238;-69
2023/01/16 00:40:03;;;;;;;6.05;1.30;;;;;;;4.14;100.00;98941.91;694141;28;1086;-69
2023/01/16 00:40:24;;;;;;;5.03;1.20;;;;;;;4.16;100.00;98946.22;696624;28;1243;-69
2023/01/16 00:40:44;;;;;;;3.58;1.05;;;;;;;4.16;100.00;98942.78;697804;28;1253;-69
2023/01/16 00:41:05;;;;;;;4.00;1.10;;;;;;;4.24;100.00;98941.00;700050;28;1158;-68
2023/01/16 00:41:25;;;;;;;3.38;1.00;;;;;;;4.24;100.00;98941.00;700224;28;1245;-69
2023/01/16 00:41:45;;;;;;;3.10;1.00;;;;;;;4.21;100.00;98941.88;700155;28;1297;-69
2023/01/16 00:42:06;;;;;;;4.10;1.00;;;;;;;4.22;100.00;98938.44;691730;28;1187;-69
2023/01/16 00:42:27;;;;;;;3.93;1.20;;;;;;;4.21;100.00;98941.00;691713;28;4457;-69
2023/01/16 00:42:47;;;;;;;3.67;1.27;;;;;;;4.19;100.00;98937.56;692659;28;1270;-69
2023/01/16 00:43:07;;;;;;;4.30;1.30;;;;;;;4.13;100.00;98945.38;692656;28;1107;-69
2023/01/16 00:43:28;;;;;;;3.72;1.10;;;;;;;4.08;100.00;98935.94;692313;28;1126;-69
2023/01/16 00:43:48;;;;;;;3.43;1.00;;;;;;;4.04;100.00;98931.66;690774;28;1299;-69
2023/01/16 00:44:09;;;;;;;4.50;1.35;;;;;;;4.15;100.00;98935.88;696569;28;1161;-69
2023/01/16 00:44:29;;;;;;;4.43;1.20;;;;;;;4.14;100.00;98934.16;697627;28;1249;-69
2023/01/16 00:44:50;;;;;;;3.53;1.20;;;;;;;4.14;100.00;98945.38;698136;28;1336;-70
2023/01/16 00:45:11;;;;;;;2.87;1.10;;;;;;;4.14;100.00;98934.16;697052;28;1202;-69
2023/01/16 00:45:31;;;;;;;4.32;1.00;;;;;;;4.14;100.00;98939.31;696279;28;4273;-69
2023/01/16 00:45:51;;;;;;;4.30;1.00;;;;;;;4.30;100.00;98935.78;701300;28;1209;-68
2023/01/16 00:46:12;;;;;;;3.73;1.10;;;;;;;4.30;100.00;98940.94;700454;28;1267;-69
2023/01/16 00:46:32;;;;;;;3.97;1.17;;;;;;;4.39;100.00;98938.28;700487;28;1495;-67
2023/01/16 00:46:52;;;;;;;4.60;1.17;;;;;;;4.46;100.00;98939.13;701614;28;1265;-69
2023/01/16 00:47:13;;;;;;;4.63;1.10;;;;;;;4.46;100.00;98935.66;700321;28;1122;-68
2023/01/16 00:47:33;;;;;;;3.40;1.10;;;;;;;4.41;100.00;98935.69;697997;28;1361;-69
2023/01/16 00:47:53;;;;;;;3.70;1.50;;;;;;;4.34;100.00;98942.63;695487;28;1257;-68
2023/01/16 00:48:14;;;;;;;3.10;1.10;;;;;;;4.31;100.00;98940.06;694222;28;5216;-68
2023/01/16 00:48:34;;;;;;;3.00;1.17;;;;;;;4.27;100.00;98946.16;695124;28;1234;-69
2023/01/16 00:48:55;;;;;;;3.50;1.30;;;;;;;4.22;100.00;98941.00;695013;28;1428;-68
2023/01/16 00:49:16;;;;;;;3.67;1.13;;;;;;;4.19;100.00;98940.16;693932;28;1298;-69
2023/01/16 00:49:36;;;;;;;3.70;1.10;;;;;;;4.16;100.00;98938.44;697846;28;5061;-69
2023/01/16 00:49:57;;;;;;;3.13;1.00;;;;;;;4.16;100.00;98937.59;697581;28;1404;-69
2023/01/16 00:50:17;;;;;;;4.63;1.10;;;;;;;4.15;100.00;98941.03;698017;28;1254;-69
2023/01/16 00:50:37;;;;;;;4.78;1.13;;;;;;;4.14;100.00;98939.31;697072;28;1416;-69
2023/01/16 00:50:58;;;;;;;4.43;1.30;;;;;;;4.15;100.00;98936.72;693461;28;1452;-69
2023/01/16 00:51:18;;;;;;;4.70;1.20;;;;;;;4.21;100.00;98941.00;693075;28;4665;-68
2023/01/16 00:51:39;;;;;;;4.47;1.17;;;;;;;4.20;100.00;98937.56;693514;28;1657;-68
2023/01/16 00:51:59;;;;;;;5.45;1.10;;;;;;;4.18;100.00;98936.72;689407;28;1314;-69
2023/01/16 00:52:19;;;;;;;4.00;1.00;;;;;;;4.16;100.00;98935.88;687104;28;1215;-69
2023/01/16 00:52:40;;;;;;;3.40;1.13;;;;;;;4.14;100.00;98935.03;689778;28;1258;-69
2023/01/16 00:53:01;;;;;;;3.73;1.20;;;;;;;4.14;100.00;98936.75;694971;28;1309;-69
2023/01/16 00:53:22;;;;;;;3.50;1.10;;;;;;;4.12;100.00;98933.31;694999;28;3736;-68
2023/01/16 00:53:42;;;;;;;4.45;1.17;;;;;;;4.11;100.00;98942.78;695351;28;1918;-69
2023/01/16 00:54:02;;;;;;;4.30;1.20;;;;;;;4.04;100.00;98934.22;698012;28;1213;-69
2023/01/16 00:54:23;;;;;;;3.60;1.20;;;;;;;4.03;100.00;98935.09;699795;28;5169;-69
2023/01/16 00:54:43;;;;;;;3.87;1.17;;;;;;;3.96;100.00;98930.81;700175;28;1294;-69
2023/01/16 00:55:04;;;;;;;3.83;1.20;;;;;;;3.94;100.00;98936.88;699246;28;1079;-69
2023/01/16 00:55:24;;;;;;;4.70;1.23;;;;;;;3.92;100.00;98934.28;700305;28;1245;-69
2023/01/16 00:55:45;;;;;;;3.43;1.20;;;;;;;3.89;100.00;98934.28;700106;28;1274;-69
2023/01/16 00:56:06;;;;;;;4.83;1.20;;;;;;;3.90;100.00;98930.84;699527;28;1165;-69
2023/01/16 00:56:26;;;;;;;4.78;1.30;;;;;;;3.90;100.00;98934.31;697691;28;1327;-69
2023/01/16 00:56:47;;;;;;;3.73;1.10;;;;;;;3.88;100.00;98932.59;697675;28;1265;-68
2023/01/16 00:57:07;;;;;;;4.47;1.20;;;;;;;3.87;100.00;98936.03;696874;28;1081;-69
2023/01/16 00:57:27;;;;;;;4.60;1.20;;;;;;;3.93;100.00;98933.41;697035;28;4277;-68
2023/01/16 00:57:48;;;;;;;3.70;1.10;;;;;;;3.95;100.00;98928.25;698068;28;1368;-68
2023/01/16 00:58:09;;;;;;;3.60;1.17;;;;;;;4.00;100.00;98927.34;697732;28;1228;-69
2023/01/16 00:58:29;;;;;;;3.70;1.20;;;;;;;4.04;100.00;98929.06;697078;28;1127;-70
2023/01/16 00:58:50;;;;;;;5.93;1.30;;;;;;;4.07;100.00;98925.56;697646;28;1107;-69
2023/01/16 00:59:10;;;;;;;5.17;1.50;;;;;;;4.07;100.00;98922.97;697253;28;1174;-69
2023/01/16 00:59:31;;;;;;;3.55;1.20;;;;;;;4.04;100.00;98921.31;697139;28;1301;-68
2023/01/16 00:59:51;;;;;;;3.13;1.30;;;;;;;4.07;100.00;98928.16;696827;28;1347;-68
2023/01/16 01:00:12;;;;;;;3.95;1.45;;;;;;;4.07;100.00;98922.97;696921;28;4393;-69
2023/01/16 01:00:33;;;;;;;4.32;1.25;;;;;;;4.02;100.00;98923.03;696916;28;1274;-69
2023/01/16 01:00:53;;;;;;;3.30;1.10;;;;;;;4.01;100.00;98923.88;697789;28;1332;-68
2023/01/16 01:01:13;;;;;;;3.95;1.15;;;;;;;4.00;100.00;98923.91;692631;28;1199;-68
2023/01/16 01:01:34;;;;;;;3.40;1.27;;;;;;;4.00;100.00;98918.72;692684;28;1353;-68
2023/01/16 01:01:54;;;;;;;3.92;1.20;;;;;;;4.06;100.00;98918.69;692564;28;1234;-70
2023/01/16 01:02:15;;;;;;;4.33;1.30;;;;;;;4.06;100.00;98922.13;692038;28;1140;-69
2023/01/16 01:02:35;;;;;;;4.68;1.30;;;;;;;4.07;100.00;98915.22;692170;28;1234;-68
2023/01/16 01:02:55;;;;;;;5.17;1.40;;;;;;;4.15;100.00;98925.53;692232;28;1314;-68
2023/01/16 01:03:16;;;;;;;4.07;1.17;;;;;;;4.31;100.00;98921.97;698590;28;4309;-68
2023/01/16 01:03:36;;;;;;;3.67;1.10;;;;;;;4.34;100.00;98914.19;699797;28;1459;-67
2023/01/16 01:03:59;;;;;;;3.30;1.10;;;;;;;4.40;100.00;98919.31;699819;28;1456;-68
2023/01/16 01:04:20;;;;;;;3.63;1.10;;;;;;;4.40;100.00;98916.75;700395;28;1181;-67
2023/01/16 01:04:40;;;;;;;3.13;1.30;;;;;;;4.36;100.00;98919.34;700874;28;1344;-68
2023/01/16 01:05:01;;;;;;;4.57;1.40;;;;;;;4.32;100.00;98918.53;699640;28;1340;-68
2023/01/16 01:05:21;;;;;;;3.90;1.27;;;;;;;4.29;100.00;98920.25;698907;28;1368;-68
2023/01/16 01:05:41;;;;;;;3.15;1.30;;;;;;;4.26;100.00;98915.97;700457;28;1289;-68
2023/01/16 01:06:11;;;;;;;4.80;1.30;;;;;;;4.20;100.00;98922.03;700131;28;1421;-69
2023/01/16 01:06:31;;;;;;;3.95;1.15;;;;;;;4.17;100.00;98927.25;693656;28;6443;-68
2023/01/16 01:06:51;;;;;;;3.85;1.20;;;;;;;4.30;100.00;98919.41;691323;28;1503;-68
2023/01/16 01:07:12;;;;;;;3.60;1.20;;;;;;;4.29;100.00;98917.69;690649;28;1195;-68
2023/01/16 01:07:32;;;;;;;4.45;1.17;;;;;;;4.42;100.00;98917.56;690858;28;1308;-67
2023/01/16 01:07:53;;;;;;;3.87;1.20;;;;;;;4.48;100.00;98923.56;691958;28;1507;-66
2023/01/16 01:08:13;;;;;;;3.72;1.15;;;;;;;4.42;100.00;98919.31;691090;28;1610;-67
2023/01/16 01:08:33;;;;;;;4.20;1.13;;;;;;;4.46;100.00;98915.81;696801;28;1067;-66
2023/01/16 01:08:54;;;;;;;3.63;1.10;;;;;;;4.47;100.00;98917.53;696787;28;1312;-68
2023/01/16 01:09:14;;;;;;;3.27;1.10;;;;;;;4.50;100.00;98916.66;696777;28;4373;-67
2023/01/16 01:09:35;;;;;;;4.18;1.10;;;;;;;4.51;100.00;98919.22;697457;28;1301;-68
2023/01/16 01:09:55;;;;;;;5.23;1.20;;;;;;;4.48;100.00;98918.41;696124;28;1186;-68
2023/01/16 01:10:17;;;;;;;4.60;1.23;;;;;;;4.49;100.00;98917.53;697827;28;1475;-68
2023/01/16 01:10:38;;;;;;;3.90;1.20;;;;;;;4.50;100.00;98908.88;698503;28;1491;-68
2023/01/16 01:11:13;;;;;;;3.92;1.10;;;;;;;4.45;100.00;98913.25;699174;28;1293;-68
2023/01/16 01:11:34;;;;;;;3.40;1.10;;;;;;;4.45;100.00;98902.91;699507;28;1311;-68
2023/01/16 01:11:56;;;;;;;3.25;1.10;;;;;;;4.43;100.00;98915.81;700663;28;1296;-68
2023/01/16 01:12:17;;;;;;;4.70;1.10;;;;;;;4.39;100.00;98907.25;699960;28;4550;-68
2023/01/16 01:12:37;;;;;;;2.95;1.02;;;;;;;4.36;100.00;98909.88;700091;28;1451;-69
2023/01/16 01:12:58;;;;;;;4.40;1.03;;;;;;;4.32;100.00;98910.75;700351;28;1435;-67
2023/01/16 01:13:18;;;;;;;3.78;1.13;;;;;;;4.30;100.00;98903.88;700128;28;1515;-68
2023/01/16 01:13:39;;;;;;;3.57;1.10;;;;;;;4.28;100.00;98909.06;697852;28;1411;-68
2023/01/16 01:14:00;;;;;;;3.85;1.10;;;;;;;4.25;100.00;98904.78;696921;28;1189;-68
2023/01/16 01:14:20;;;;;;;4.00;1.13;;;;;;;4.24;100.00;98907.38;697504;28;1318;-68
2023/01/16 01:14:41;;;;;;;3.40;1.10;;;;;;;4.22;100.00;98909.09;697853;28;1166;-68
2023/01/16 01:15:01;;;;;;;3.42;1.30;;;;;;;4.18;100.00;98897.94;693809;28;1282;-70
2023/01/16 01:15:23;;;;;;;4.18;1.13;;;;;;;4.19;100.00;98901.38;694538;28;4383;-68
2023/01/16 01:15:43;;;;;;;4.10;1.08;;;;;;;4.17;100.00;98903.13;695411;28;1321;-68
2023/01/16 01:16:04;;;;;;;2.95;1.00;;;;;;;4.25;100.00;98902.19;695079;28;1150;-67
2023/01/16 01:16:25;;;;;;;3.88;1.10;;;;;;;4.23;100.00;98901.31;695136;28;1309;-67
2023/01/16 01:16:45;;;;;;;3.00;0.90;;;;;;;4.22;100.00;98896.16;692766;28;1278;-68
2023/01/16 01:17:05;;;;;;;3.20;1.00;;;;;;;4.21;100.00;98899.59;694967;28;1076;-68
2023/01/16 01:17:26;;;;;;;3.07;0.90;;;;;;;4.26;100.00;98898.72;695096;28;1352;-69
2023/01/16 01:17:46;;;;;;;3.42;1.10;;;;;;;4.29;100.00;98900.41;697736;28;1277;-68
2023/01/16 01:18:07;;;;;;;4.47;1.13;;;;;;;4.27;100.00;98897.00;696584;28;996;-69
2023/01/16 01:18:27;;;;;;;4.05;1.20;;;;;;;4.39;100.00;98899.50;696879;28;4328;-67
2023/01/16 01:18:47;;;;;;;3.43;1.00;;;;;;;4.35;100.00;98899.53;698041;28;1205;-68
2023/01/16 01:19:08;;;;;;;4.60;1.13;;;;;;;4.38;100.00;98897.75;694312;28;1166;-67
2023/01/16 01:19:28;;;;;;;4.17;1.17;;;;;;;4.39;100.00;98903.81;694435;28;1293;-67
2023/01/16 01:19:48;;;;;;;3.50;1.27;;;;;;;4.39;100.00;98896.91;694605;28;1329;-68
2023/01/16 01:20:09;;;;;;;2.70;0.90;;;;;;;4.35;100.00;98897.78;694621;28;1219;-68
2023/01/16 01:20:30;;;;;;;3.70;1.00;;;;;;;4.34;100.00;98893.47;697594;28;1337;-68
2023/01/16 01:20:50;;;;;;;2.93;1.00;;;;;;;4.44;100.00;98896.84;697293;28;1102;-68
2023/01/16 01:21:10;;;;;;;2.75;1.00;;;;;;;4.45;100.00;98897.72;699106;28;4474;-67
2023/01/16 01:21:31;;;;;;;3.30;1.00;;;;;;;4.52;100.00;98894.22;700218;28;1197;-67
2023/01/16 01:21:52;;;;;;;2.60;0.95;;;;;;;4.53;100.00;98890.75;700521;28;1304;-68
2023/01/16 01:22:14;;;;;;;2.55;1.10;;;;;;;4.49;100.00;98892.50;698886;28;1145;-68
2023/01/16 01:22:35;;;;;;;4.10;1.20;;;;;;;4.43;100.00;98893.41;700470;28;1415;-66
2023/01/16 01:22:55;;;;;;;3.72;1.00;;;;;;;4.42;100.00;98891.69;700567;28;1299;-67
2023/01/16 01:23:15;;;;;;;3.93;1.00;;;;;;;4.39;100.00;98891.72;700034;28;1511;-68
2023/01/16 01:23:36;;;;;;;3.92;1.10;;;;;;;4.35;100.00;98891.78;700219;28;1288;-67
2023/01/16 01:23:56;;;;;;;4.33;1.10;;;;;;;4.32;100.00;98891.78;696644;28;1095;-67
2023/01/16 01:24:17;;;;;;;3.43;1.70;;;;;;;4.31;100.00;98888.34;697065;28;4301;-68
2023/01/16 01:24:37;;;;;;;3.15;1.55;;;;;;;4.31;100.00;98888.34;697929;28;1424;-68
2023/01/16 01:24:57;;;;;;;3.03;0.90;;;;;;;4.35;100.00;98889.19;696808;28;1281;-67
2023/01/16 01:25:18;;;;;;;3.17;0.93;;;;;;;4.40;100.00;98890.00;697329;28;1456;-67
2023/01/16 01:25:38;;;;;;;2.63;1.00;;;;;;;4.36;100.00;98889.16;697932;28;1411;-68
2023/01/16 01:26:05;;;;;;;3.15;1.10;;;;;;;4.33;100.00;98885.75;700325;28;1557;-68
2023/01/16 01:26:26;;;;;;;3.50;1.13;;;;;;;4.29;100.00;98891.81;699785;28;1233;-67
2023/01/16 01:26:46;;;;;;;4.40;1.17;;;;;;;4.34;100.00;98877.13;700206;28;1276;-68
2023/01/16 01:27:06;;;;;;;4.07;1.15;;;;;;;4.41;100.00;98882.22;700016;28;1083;-67
2023/01/16 01:27:27;;;;;;;2.33;0.90;;;;;;;4.37;100.00;98875.34;700252;28;4299;-67
2023/01/16 01:27:47;;;;;;;3.35;1.10;;;;;;;4.41;100.00;98881.38;697289;28;1261;-67
2023/01/16 01:28:08;;;;;;;2.77;1.17;;;;;;;4.36;100.00;98881.41;696597;28;1071;-68
2023/01/16 01:28:28;;;;;;;3.05;1.00;;;;;;;4.31;100.00;98880.59;697124;28;1293;-68
2023/01/16 01:28:48;;;;;;;3.63;1.00;;;;;;;4.28;100.00;98875.44;697923;28;1257;-68
2023/01/16 01:29:09;;;;;;;2.97;1.00;;;;;;;4.26;100.00;98872.00;697544;28;1112;-68
2023/01/16 01:29:29;;;;;;;2.50;0.90;;;;;;;4.22;100.00;98873.75;698240;28;1242;-68
2023/01/16 01:29:49;;;;;;;2.40;0.90;;;;;;;4.21;100.00;98873.75;696753;28;1324;-67
2023/01/16 01:30:10;;;;;;;3.42;1.00;;;;;;;4.20;100.00;98872.06;697097;28;1044;-67
2023/01/16 01:30:31;;;;;;;3.30;0.98;;;;;;;4.19;100.00;98870.31;697223;28;4281;-66
2023/01/16 01:30:51;;;;;;;2.80;1.00;;;;;;;4.19;100.00;98866.00;697613;28;1356;-67
2023/01/16 01:31:12;;;;;;;2.77;1.00;;;;;;;4.18;100.00;98869.47;700370;28;1153;-67
2023/01/16 01:31:33;;;;;;;2.90;0.90;;;;;;;4.16;100.00;98868.63;699869;28;1472;-68
2023/01/16 01:31:53;;;;;;;3.03;1.00;;;;;;;4.17;100.00;98865.16;697623;28;1416;-67
2023/01/16 01:32:13;;;;;;;2.38;0.98;;;;;;;4.21;100.00;98869.44;697010;28;1197;-65
2023/01/16 01:32:36;;;;;;;2.47;0.83;;;;;;;4.19;100.00;98868.59;692406;28;1294;-68
2023/01/16 01:32:57;;;;;;;2.88;1.13;;;;;;;4.31;100.00;98870.22;691616;28;1175;-66
2023/01/16 01:33:17;;;;;;;2.63;1.10;;;;;;;4.36;100.00;98865.88;692062;28;4332;-67
2023/01/16 01:33:38;;;;;;;3.30;0.90;;;;;;;4.33;100.00;98867.63;693044;28;1538;-67
2023/01/16 01:33:58;;;;;;;3.22;1.10;;;;;;;4.28;100.00;98865.09;694594;28;1914;-67
2023/01/16 01:34:18;;;;;;;2.17;0.80;;;;;;;4.25;100.00;98870.25;692962;28;1499;-66
2023/01/16 01:34:39;;;;;;;2.97;0.85;;;;;;;4.29;100.00;98861.59;697981;28;1483;-66
2023/01/16 01:35:00;;;;;;;3.10;0.82;;;;;;;4.25;100.00;98865.97;697281;28;1246;-66
2023/01/16 01:35:20;;;;;;;3.95;0.90;;;;;;;4.25;100.00;98865.09;697871;28;1063;-67
2023/01/16 01:35:41;;;;;;;3.73;1.00;;;;;;;4.22;100.00;98863.41;694814;28;1092;-67
2023/01/16 01:36:03;;;;;;;2.87;0.80;;;;;;;4.20;100.00;98861.72;694823;28;1270;-67
2023/01/16 01:36:23;;;;;;;2.72;0.80;;;;;;;4.22;100.00;98854.78;695685;28;4496;-67
2023/01/16 01:36:43;;;;;;;2.53;0.80;;;;;;;4.27;100.00;98860.78;695219;28;1325;-66
2023/01/16 01:37:06;;;;;;;1.87;0.77;;;;;;;4.32;100.00;98860.72;694593;28;1226;-68
2023/01/16 01:37:26;;;;;;;2.13;0.70;;;;;;;4.32;100.00;98851.25;692163;28;1411;-66
2023/01/16 01:37:46;;;;;;;2.20;0.90;;;;;;;4.31;100.00;98854.72;693946;28;1424;-67
2023/01/16 01:38:07;;;;;;;2.07;0.80;;;;;;;4.26;100.00;98848.72;694143;28;1427;-67
2023/01/16 01:38:27;;;;;;;2.40;0.90;;;;;;;4.24;100.00;98859.06;695253;28;1254;-66
2023/01/16 01:38:50;;;;;;;2.17;0.80;;;;;;;4.20;100.00;98854.78;697353;28;1328;-66
2023/01/16 01:39:11;;;;;;;3.00;0.80;;;;;;;4.22;100.00;98844.44;696628;28;4375;-68
2023/01/16 01:39:32;;;;;;;3.15;0.77;;;;;;;4.21;100.00;98853.06;700095;28;1426;-67
2023/01/16 01:39:52;;;;;;;2.40;0.77;;;;;;;4.21;100.00;98850.47;697801;28;1293;-67
2023/01/16 01:40:12;;;;;;;3.10;0.90;;;;;;;4.19;100.00;98844.47;696941;28;1170;-67